createdAt,value
2023-01-13T00:00:54.887Z,0.50
2023-01-13T00:01:54.901Z,0.60
2023-01-13T00:02:54.849Z,0.50
2023-01-13T00:03:54.848Z,0.60
2023-01-13T00:04:54.904Z,0.50
2023-01-13T00:05:54.833Z,0.60
2023-01-13T00:06:54.841Z,0.50
2023-01-13T00:07:54.826Z,0.40
2023-01-13T00:08:54.841Z,0.60
2023-01-13T00:09:54.773Z,0.70
2023-01-13T00:10:54.761Z,0.60
2023-01-13T00:11:54.758Z,0.60
2023-01-13T00:12:54.784Z,0.40
2023-01-13T00:13:54.742Z,0.50
2023-01-13T00:14:54.735Z,0.60
2023-01-13T00:15:54.718Z,0.40
2023-01-13T00:16:54.694Z,0.50
2023-01-13T00:17:54.735Z,0.60
2023-01-13T00:18:54.688Z,0.60
2023-01-13T00:19:54.683Z,0.50
2023-01-13T00:20:54.653Z,0.60
2023-01-13T00:21:54.667Z,0.50
2023-01-13T00:22:54.639Z,0.60
2023-01-13T00:23:54.647Z,0.60
2023-01-13T00:24:54.641Z,0.50
2023-01-13T00:25:54.609Z,0.40
2023-01-13T00:26:54.621Z,0.50
2023-01-13T00:27:54.563Z,0.50
2023-01-13T00:28:54.584Z,0.50
2023-01-13T00:29:54.543Z,0.60
2023-01-13T00:30:54.576Z,0.50
2023-01-13T00:31:54.540Z,0.50
2023-01-13T00:32:54.620Z,0.50
2023-01-13T00:33:54.503Z,0.50
2023-01-13T00:34:54.534Z,0.60
2023-01-13T00:35:54.495Z,0.40
2023-01-13T00:36:54.488Z,0.50
2023-01-13T00:37:54.450Z,0.50
2023-01-13T00:38:54.489Z,0.50
2023-01-13T00:39:54.468Z,0.60
2023-01-13T00:40:54.470Z,0.60
2023-01-13T00:41:54.410Z,0.70
2023-01-13T00:42:54.564Z,0.50
2023-01-13T00:43:54.388Z,0.70
2023-01-13T00:44:54.377Z,0.40
2023-01-13T00:45:54.378Z,0.50
2023-01-13T00:46:54.456Z,0.70
2023-01-13T00:47:54.399Z,0.50
2023-01-13T00:48:54.365Z,0.60
2023-01-13T00:49:54.321Z,0.60
2023-01-13T00:50:54.362Z,0.60
2023-01-13T00:51:54.329Z,0.60
2023-01-13T00:52:54.286Z,0.70
2023-01-13T00:53:54.347Z,0.60
2023-01-13T00:54:54.339Z,0.60
2023-01-13T00:55:54.299Z,0.60
2023-01-13T00:56:54.251Z,0.40
2023-01-13T00:57:54.243Z,0.50
2023-01-13T00:58:54.227Z,0.60
2023-01-13T00:59:54.220Z,0.50
2023-01-13T01:00:54.380Z,0.80
2023-01-13T01:01:54.374Z,0.60
2023-01-13T01:02:54.193Z,0.50
2023-01-13T01:03:54.172Z,0.70
2023-01-13T01:04:54.156Z,0.50
2023-01-13T01:05:54.151Z,0.60
2023-01-13T01:06:54.178Z,0.70
2023-01-13T01:07:54.137Z,0.50
2023-01-13T01:08:54.121Z,0.60
2023-01-13T01:09:54.094Z,0.60
2023-01-13T01:10:54.129Z,0.60
2023-01-13T01:11:54.072Z,0.60
2023-01-13T01:12:54.075Z,0.60
2023-01-13T01:13:54.060Z,0.70
2023-01-13T01:14:54.114Z,0.60
2023-01-13T01:15:54.096Z,0.60
2023-01-13T01:16:54.025Z,0.50
2023-01-13T01:17:54.010Z,0.50
2023-01-13T01:18:54.026Z,0.50
2023-01-13T01:19:54.034Z,0.60
2023-01-13T01:20:53.979Z,0.60
2023-01-13T01:21:54.006Z,0.60
2023-01-13T01:22:53.970Z,0.60
2023-01-13T01:23:53.968Z,0.50
2023-01-13T01:24:53.935Z,0.60
2023-01-13T01:25:53.932Z,0.50
2023-01-13T01:26:53.942Z,0.50
2023-01-13T01:27:53.894Z,0.70
2023-01-13T01:28:53.881Z,0.50
2023-01-13T01:29:53.873Z,0.60
2023-01-13T01:30:53.876Z,0.50
2023-01-13T01:31:53.888Z,0.50
2023-01-13T01:32:53.838Z,0.60
2023-01-13T01:33:53.831Z,0.60
2023-01-13T01:34:53.818Z,0.50
2023-01-13T01:35:53.802Z,0.60
2023-01-13T01:36:53.833Z,0.60
2023-01-13T01:37:53.807Z,0.60
2023-01-13T01:38:53.808Z,0.60
2023-01-13T01:39:53.801Z,0.50
2023-01-13T01:40:53.752Z,0.60
2023-01-13T01:41:53.765Z,0.50
2023-01-13T01:42:53.756Z,0.60
2023-01-13T01:43:53.715Z,0.50
2023-01-13T01:44:53.704Z,0.60
2023-01-13T01:45:53.731Z,0.60
2023-01-13T01:46:53.716Z,0.50
2023-01-13T01:47:53.709Z,0.50
2023-01-13T01:48:53.691Z,0.60
2023-01-13T01:49:53.648Z,0.40
2023-01-13T01:50:53.639Z,0.60
2023-01-13T01:51:53.656Z,0.60
2023-01-13T01:52:53.628Z,0.50
2023-01-13T01:53:53.611Z,0.40
2023-01-13T01:54:53.618Z,0.40
2023-01-13T01:55:53.601Z,0.50
2023-01-13T01:56:53.624Z,0.50
2023-01-13T01:57:53.594Z,0.50
2023-01-13T01:58:53.548Z,0.50
2023-01-13T01:59:53.553Z,0.50
2023-01-13T02:00:53.729Z,0.40
2023-01-13T02:01:53.609Z,0.50
2023-01-13T02:02:53.520Z,0.50
2023-01-13T02:03:53.490Z,0.40
2023-01-13T02:04:53.521Z,0.50
2023-01-13T02:05:53.477Z,0.40
2023-01-13T02:06:53.512Z,0.70
2023-01-13T02:07:53.449Z,0.30
2023-01-13T02:08:53.435Z,0.40
2023-01-13T02:09:53.423Z,0.40
2023-01-13T02:10:53.428Z,0.50
2023-01-13T02:11:53.461Z,0.50
2023-01-13T02:12:53.443Z,0.60
2023-01-13T02:13:53.400Z,0.50
2023-01-13T02:14:53.366Z,0.60
2023-01-13T02:15:53.354Z,0.50
2023-01-13T02:16:53.360Z,0.50
2023-01-13T02:17:53.370Z,0.40
2023-01-13T02:18:53.339Z,0.40
2023-01-13T02:19:53.327Z,0.40
2023-01-13T02:20:53.307Z,0.60
2023-01-13T02:21:53.293Z,0.50
2023-01-13T02:22:53.304Z,0.50
2023-01-13T02:23:53.266Z,0.60
2023-01-13T02:24:53.297Z,0.50
2023-01-13T02:25:53.243Z,0.40
2023-01-13T02:26:53.232Z,0.50
2023-01-13T02:27:53.272Z,0.50
2023-01-13T02:28:53.228Z,0.40
2023-01-13T02:29:53.233Z,0.40
2023-01-13T02:30:53.220Z,0.50
2023-01-13T02:31:53.206Z,0.50
2023-01-13T02:32:53.163Z,0.60
2023-01-13T02:33:53.173Z,0.40
2023-01-13T02:34:53.146Z,0.50
2023-01-13T02:35:53.171Z,0.50
2023-01-13T02:36:53.137Z,0.50
2023-01-13T02:37:53.121Z,0.40
2023-01-13T02:38:53.101Z,0.50
2023-01-13T02:39:53.098Z,0.30
2023-01-13T02:40:53.074Z,0.60
2023-01-13T02:41:53.111Z,0.40
2023-01-13T02:42:53.056Z,0.50
2023-01-13T02:43:53.060Z,0.50
2023-01-13T02:44:53.039Z,0.40
2023-01-13T02:45:53.219Z,0.40
2023-01-13T02:46:53.008Z,0.40
2023-01-13T02:47:53.570Z,0.50
2023-01-13T02:48:52.981Z,0.40
2023-01-13T02:49:52.988Z,0.50
2023-01-13T02:50:52.977Z,0.60
2023-01-13T02:51:52.949Z,0.40
2023-01-13T02:52:52.986Z,0.40
2023-01-13T02:53:52.953Z,0.50
2023-01-13T02:54:52.915Z,0.40
2023-01-13T02:55:52.936Z,0.40
2023-01-13T02:56:52.908Z,0.50
2023-01-13T02:57:52.886Z,0.30
2023-01-13T02:58:52.876Z,0.40
2023-01-13T02:59:52.896Z,0.30
2023-01-13T03:00:52.970Z,0.50
2023-01-13T03:01:52.968Z,0.50
2023-01-13T03:02:52.972Z,0.40
2023-01-13T03:03:52.806Z,0.50
2023-01-13T03:04:52.788Z,0.50
2023-01-13T03:05:52.760Z,0.50
2023-01-13T03:06:52.760Z,0.40
2023-01-13T03:07:52.784Z,0.40
2023-01-13T03:08:52.723Z,0.40
2023-01-13T03:09:52.710Z,0.50
2023-01-13T03:10:53.476Z,0.50
2023-01-13T03:11:52.731Z,0.50
2023-01-13T03:12:52.694Z,0.50
2023-01-13T03:13:52.664Z,0.40
2023-01-13T03:14:52.682Z,0.40
2023-01-13T03:15:52.663Z,0.50
2023-01-13T03:16:52.662Z,0.50
2023-01-13T03:17:52.661Z,0.40
2023-01-13T03:18:52.663Z,0.40
2023-01-13T03:19:52.598Z,0.40
2023-01-13T03:20:52.649Z,0.30
2023-01-13T03:21:52.583Z,0.70
2023-01-13T03:22:52.601Z,0.40
2023-01-13T03:23:52.576Z,0.50
2023-01-13T03:24:52.543Z,0.40
2023-01-13T03:25:52.529Z,0.40
2023-01-13T03:26:52.547Z,0.40
2023-01-13T03:27:52.537Z,0.30
2023-01-13T03:28:52.508Z,0.40
2023-01-13T03:29:52.509Z,0.40
2023-01-13T03:30:52.544Z,0.40
2023-01-13T03:31:52.487Z,0.40
2023-01-13T03:32:52.533Z,0.40
2023-01-13T03:33:52.441Z,0.40
2023-01-13T03:34:52.447Z,0.60
2023-01-13T03:35:52.437Z,0.30
2023-01-13T03:36:52.411Z,0.40
2023-01-13T03:37:52.401Z,0.40
2023-01-13T03:38:52.443Z,0.30
2023-01-13T03:39:52.382Z,0.40
2023-01-13T03:40:52.425Z,0.60
2023-01-13T03:41:52.352Z,0.40
2023-01-13T03:42:52.343Z,0.30
2023-01-13T03:43:52.330Z,0.40
2023-01-13T03:44:52.353Z,0.50
2023-01-13T03:45:52.364Z,0.50
2023-01-13T03:46:52.314Z,0.40
2023-01-13T03:47:52.318Z,0.40
2023-01-13T03:48:52.276Z,0.40
2023-01-13T03:49:52.319Z,0.40
2023-01-13T03:50:52.282Z,0.40
2023-01-13T03:51:52.260Z,0.40
2023-01-13T03:52:52.251Z,0.50
2023-01-13T03:53:52.219Z,0.50
2023-01-13T03:54:52.261Z,0.40
2023-01-13T03:55:52.219Z,0.50
2023-01-13T03:56:52.193Z,0.40
2023-01-13T03:57:52.299Z,0.40
2023-01-13T03:58:52.164Z,0.40
2023-01-13T03:59:52.152Z,0.30
2023-01-13T04:00:52.184Z,0.40
2023-01-13T04:01:52.270Z,0.50
2023-01-13T04:02:52.129Z,0.30
2023-01-13T04:03:52.216Z,0.30
2023-01-13T04:04:52.107Z,0.30
2023-01-13T04:05:52.082Z,0.50
2023-01-13T04:06:52.074Z,0.50
2023-01-13T04:07:52.064Z,0.40
2023-01-13T04:08:52.069Z,0.30
2023-01-13T04:09:52.079Z,0.40
2023-01-13T04:10:52.033Z,0.50
2023-01-13T04:11:52.024Z,0.40
2023-01-13T04:12:52.017Z,0.30
2023-01-13T04:13:52.028Z,0.30
2023-01-13T04:14:52.017Z,0.50
2023-01-13T04:15:52.022Z,0.30
2023-01-13T04:16:51.960Z,0.30
2023-01-13T04:17:51.950Z,0.30
2023-01-13T04:18:51.947Z,0.40
2023-01-13T04:19:52.057Z,0.40
2023-01-13T04:20:51.938Z,0.30
2023-01-13T04:21:51.925Z,0.30
2023-01-13T04:22:51.892Z,0.40
2023-01-13T04:23:51.887Z,0.40
2023-01-13T04:24:51.890Z,0.40
2023-01-13T04:25:51.896Z,0.40
2023-01-13T04:26:51.883Z,0.30
2023-01-13T04:27:51.847Z,0.30
2023-01-13T04:28:51.870Z,0.40
2023-01-13T04:29:51.818Z,0.30
2023-01-13T04:30:51.935Z,0.40
2023-01-13T04:31:51.815Z,0.50
2023-01-13T04:32:51.828Z,0.40
2023-01-13T04:33:51.773Z,0.40
2023-01-13T04:34:51.774Z,0.40
2023-01-13T04:35:51.781Z,0.50
2023-01-13T04:36:51.749Z,0.40
2023-01-13T04:37:51.769Z,0.40
2023-01-13T04:38:51.764Z,0.50
2023-01-13T04:39:51.716Z,0.50
2023-01-13T04:40:51.695Z,1.40
2023-01-13T04:41:51.704Z,1.60
2023-01-13T04:42:51.700Z,0.90
2023-01-13T04:43:51.672Z,0.60
2023-01-13T04:44:51.685Z,0.80
2023-01-13T04:45:51.730Z,0.80
2023-01-13T04:46:51.630Z,0.60
2023-01-13T04:47:51.633Z,0.40
2023-01-13T04:48:51.615Z,0.40
2023-01-13T04:49:51.593Z,0.40
2023-01-13T04:50:51.598Z,0.30
2023-01-13T04:51:51.664Z,0.40
2023-01-13T04:52:51.599Z,0.70
2023-01-13T04:53:51.593Z,0.40
2023-01-13T04:54:51.562Z,0.80
2023-01-13T04:55:51.528Z,0.40
2023-01-13T04:56:51.525Z,0.60
2023-01-13T04:57:51.514Z,0.80
2023-01-13T04:58:51.516Z,0.70
2023-01-13T04:59:51.510Z,0.50
2023-01-13T05:00:51.487Z,0.30
2023-01-13T05:01:51.697Z,0.30
2023-01-13T05:02:51.528Z,0.40
2023-01-13T05:03:51.436Z,0.50
2023-01-13T05:04:51.515Z,0.30
2023-01-13T05:05:51.427Z,0.30
2023-01-13T05:06:51.401Z,0.30
2023-01-13T05:07:51.413Z,0.40
2023-01-13T05:08:51.387Z,0.30
2023-01-13T05:09:51.393Z,0.30
2023-01-13T05:10:51.395Z,0.30
2023-01-13T05:11:51.358Z,0.30
2023-01-13T05:12:51.339Z,0.30
2023-01-13T05:13:51.330Z,0.30
2023-01-13T05:14:51.379Z,0.40
2023-01-13T05:15:51.346Z,0.40
2023-01-13T05:16:51.328Z,0.40
2023-01-13T05:17:51.306Z,0.60
2023-01-13T05:18:51.266Z,0.30
2023-01-13T05:19:51.254Z,0.40
2023-01-13T05:20:51.296Z,0.40
2023-01-13T05:21:51.248Z,0.40
2023-01-13T05:22:51.239Z,0.40
2023-01-13T05:23:51.235Z,0.30
2023-01-13T05:24:51.251Z,0.40
2023-01-13T05:25:51.249Z,0.40
2023-01-13T05:26:51.249Z,0.40
2023-01-13T05:27:51.168Z,0.40
2023-01-13T05:28:51.193Z,0.50
2023-01-13T05:29:51.143Z,0.50
2023-01-13T05:30:51.264Z,0.40
2023-01-13T05:31:51.144Z,0.40
2023-01-13T05:32:51.196Z,0.50
2023-01-13T05:33:51.123Z,0.40
2023-01-13T05:34:51.103Z,0.50
2023-01-13T05:35:51.078Z,0.40
2023-01-13T05:36:51.095Z,0.50
2023-01-13T05:37:51.056Z,0.60
2023-01-13T05:38:51.083Z,0.40
2023-01-13T05:39:51.064Z,0.60
2023-01-13T05:40:51.038Z,0.40
2023-01-13T05:41:51.051Z,0.50
2023-01-13T05:42:51.000Z,0.40
2023-01-13T05:43:51.000Z,0.40
2023-01-13T05:44:50.990Z,0.40
2023-01-13T05:45:51.016Z,0.40
2023-01-13T05:46:51.063Z,0.50
2023-01-13T05:47:50.982Z,0.50
2023-01-13T05:48:50.934Z,0.50
2023-01-13T05:49:50.933Z,0.40
2023-01-13T05:50:50.943Z,0.40
2023-01-13T05:51:50.944Z,0.40
2023-01-13T05:52:50.891Z,0.90
2023-01-13T05:53:50.884Z,0.70
2023-01-13T05:54:50.868Z,0.60
2023-01-13T05:55:50.910Z,0.50
2023-01-13T05:56:50.864Z,0.50
2023-01-13T05:57:50.860Z,0.40
2023-01-13T05:58:50.866Z,0.40
2023-01-13T05:59:50.811Z,0.50
2023-01-13T06:00:50.799Z,0.40
2023-01-13T06:01:50.807Z,0.50
2023-01-13T06:02:50.815Z,0.40
2023-01-13T06:03:50.798Z,0.50
2023-01-13T06:04:50.754Z,0.40
2023-01-13T06:05:50.745Z,0.50
2023-01-13T06:06:50.743Z,0.50
2023-01-13T06:07:50.735Z,0.40
2023-01-13T06:08:50.720Z,0.40
2023-01-13T06:09:50.740Z,0.50
2023-01-13T06:10:50.699Z,0.40
2023-01-13T06:11:50.731Z,0.60
2023-01-13T06:12:50.670Z,0.50
2023-01-13T06:13:50.705Z,0.50
2023-01-13T06:14:50.664Z,0.50
2023-01-13T06:15:50.679Z,0.40
2023-01-13T06:16:50.619Z,0.50
2023-01-13T06:17:50.617Z,0.50
2023-01-13T06:18:50.651Z,0.40
2023-01-13T06:19:50.621Z,0.50
2023-01-13T06:20:50.597Z,0.40
2023-01-13T06:21:50.597Z,0.50
2023-01-13T06:22:50.552Z,0.50
2023-01-13T06:23:50.585Z,0.40
2023-01-13T06:24:50.542Z,0.40
2023-01-13T06:25:50.546Z,0.50
2023-01-13T06:26:50.544Z,0.30
2023-01-13T06:27:50.530Z,0.40
2023-01-13T06:28:50.498Z,0.40
2023-01-13T06:29:50.496Z,0.50
2023-01-13T06:30:50.471Z,0.40
2023-01-13T06:31:50.555Z,0.40
2023-01-13T06:32:50.443Z,0.50
2023-01-13T06:33:50.447Z,0.40
2023-01-13T06:34:50.417Z,0.60
2023-01-13T06:35:50.425Z,0.50
2023-01-13T06:36:50.440Z,0.40
2023-01-13T06:37:50.416Z,0.40
2023-01-13T06:38:50.370Z,0.40
2023-01-13T06:39:50.368Z,0.40
2023-01-13T06:40:50.388Z,0.40
2023-01-13T06:41:50.389Z,0.50
2023-01-13T06:42:50.349Z,0.60
2023-01-13T06:43:50.349Z,0.40
2023-01-13T06:44:50.305Z,0.40
2023-01-13T06:45:50.297Z,0.40
2023-01-13T06:46:50.330Z,0.40
2023-01-13T06:47:50.312Z,0.40
2023-01-13T06:48:50.272Z,0.50
2023-01-13T06:49:50.284Z,0.50
2023-01-13T06:50:50.240Z,0.60
2023-01-13T06:51:50.235Z,0.60
2023-01-13T06:52:50.239Z,0.60
2023-01-13T06:53:50.233Z,0.60
2023-01-13T06:54:50.565Z,0.60
2023-01-13T06:55:50.194Z,0.60
2023-01-13T06:56:50.191Z,0.50
2023-01-13T06:57:50.163Z,0.50
2023-01-13T06:58:50.155Z,0.50
2023-01-13T06:59:50.729Z,0.40
2023-01-13T07:00:50.161Z,0.50
2023-01-13T07:01:50.344Z,0.50
2023-01-13T07:02:50.207Z,0.60
2023-01-13T07:03:50.102Z,0.50
2023-01-13T07:04:50.130Z,0.50
2023-01-13T07:05:50.087Z,0.50
2023-01-13T07:06:50.091Z,0.50
2023-01-13T07:07:50.065Z,0.50
2023-01-13T07:08:58.574Z,0.50
2023-01-13T07:09:50.026Z,0.50
2023-01-13T07:10:50.032Z,0.40
2023-01-13T07:11:50.036Z,0.40
2023-01-13T07:12:49.989Z,0.50
2023-01-13T07:13:49.983Z,0.40
2023-01-13T07:14:49.984Z,0.50
2023-01-13T07:15:49.991Z,0.40
2023-01-13T07:16:50.017Z,0.50
2023-01-13T07:17:49.999Z,0.60
2023-01-13T07:18:49.967Z,0.40
2023-01-13T07:19:49.924Z,0.60
2023-01-13T07:20:49.908Z,0.50
2023-01-13T07:21:49.902Z,0.50
2023-01-13T07:22:49.919Z,0.50
2023-01-13T07:23:49.936Z,0.50
2023-01-13T07:24:49.862Z,0.40
2023-01-13T07:25:49.876Z,0.40
2023-01-13T07:26:49.849Z,0.50
2023-01-13T07:27:49.833Z,0.50
2023-01-13T07:28:49.884Z,0.60
2023-01-13T07:29:49.804Z,1.00
2023-01-13T07:30:49.809Z,0.70
2023-01-13T07:31:50.395Z,1.20
2023-01-13T07:32:49.769Z,1.00
2023-01-13T07:33:49.797Z,0.60
2023-01-13T07:34:49.891Z,0.50
2023-01-13T07:35:49.731Z,0.90
2023-01-13T07:36:49.722Z,0.80
2023-01-13T07:37:49.719Z,1.00
2023-01-13T07:38:49.703Z,1.30
2023-01-13T07:39:49.709Z,0.90
2023-01-13T07:40:49.737Z,0.90
2023-01-13T07:41:49.712Z,0.90
2023-01-13T07:42:49.661Z,0.90
2023-01-13T07:43:49.655Z,1.10
2023-01-13T07:44:49.640Z,1.00
2023-01-13T07:45:49.703Z,0.80
2023-01-13T07:46:49.666Z,1.10
2023-01-13T07:47:49.639Z,1.10
2023-01-13T07:48:49.613Z,1.00
2023-01-13T07:49:49.577Z,1.00
2023-01-13T07:50:49.596Z,1.00
2023-01-13T07:51:49.585Z,0.80
2023-01-13T07:52:49.552Z,0.60
2023-01-13T07:53:49.556Z,0.70
2023-01-13T07:54:49.524Z,0.50
2023-01-13T07:55:49.522Z,0.60
2023-01-13T07:56:49.512Z,0.60
2023-01-13T07:57:49.540Z,0.80
2023-01-13T07:58:49.494Z,0.80
2023-01-13T07:59:49.468Z,0.60
2023-01-13T08:00:49.487Z,0.60
2023-01-13T08:01:49.578Z,0.80
2023-01-13T08:02:49.453Z,1.00
2023-01-13T08:03:49.440Z,1.00
2023-01-13T08:04:49.424Z,0.80
2023-01-13T08:05:49.434Z,0.90
2023-01-13T08:06:49.404Z,1.00
2023-01-13T08:07:49.410Z,0.90
2023-01-13T08:08:49.396Z,1.10
2023-01-13T08:09:49.396Z,1.10
2023-01-13T08:10:49.353Z,0.60
2023-01-13T08:11:49.335Z,0.60
2023-01-13T08:12:52.989Z,0.60
2023-01-13T08:13:50.360Z,0.50
2023-01-13T08:14:49.299Z,0.60
2023-01-13T08:15:49.287Z,0.70
2023-01-13T08:16:49.337Z,0.60
2023-01-13T08:17:49.287Z,0.60
2023-01-13T08:18:49.293Z,0.50
2023-01-13T08:19:49.298Z,0.70
2023-01-13T08:20:49.239Z,0.70
2023-01-13T08:21:49.219Z,0.60
2023-01-13T08:22:49.267Z,0.60
2023-01-13T08:23:49.216Z,0.60
2023-01-13T08:24:49.200Z,0.70
2023-01-13T08:25:49.189Z,0.60
2023-01-13T08:26:49.209Z,0.60
2023-01-13T08:27:49.158Z,0.60
2023-01-13T08:28:49.165Z,0.60
2023-01-13T08:29:49.131Z,1.20
2023-01-13T08:30:49.226Z,1.00
2023-01-13T08:31:49.142Z,0.60
2023-01-13T08:32:49.107Z,0.50
2023-01-13T08:33:49.083Z,0.50
2023-01-13T08:34:49.099Z,0.50
2023-01-13T08:35:49.112Z,0.60
2023-01-13T08:36:49.061Z,0.60
2023-01-13T08:37:49.079Z,0.50
2023-01-13T08:38:49.061Z,0.60
2023-01-13T08:39:49.013Z,0.50
2023-01-13T08:40:49.023Z,0.60
2023-01-13T08:41:49.042Z,0.50
2023-01-13T08:42:49.012Z,0.60
2023-01-13T08:43:48.969Z,0.60
2023-01-13T08:44:48.968Z,0.40
2023-01-13T08:45:49.023Z,0.50
2023-01-13T08:46:48.939Z,0.40
2023-01-13T08:47:48.980Z,0.50
2023-01-13T08:48:48.950Z,0.50
2023-01-13T08:49:48.904Z,0.50
2023-01-13T08:50:48.895Z,0.50
2023-01-13T08:51:48.917Z,0.40
2023-01-13T08:52:48.880Z,0.50
2023-01-13T08:53:48.893Z,0.40
2023-01-13T08:54:48.850Z,0.60
2023-01-13T08:55:48.905Z,0.60
2023-01-13T08:56:48.901Z,0.60
2023-01-13T08:57:48.821Z,0.60
2023-01-13T08:58:48.813Z,0.60
2023-01-13T08:59:48.817Z,0.50
2023-01-13T09:00:48.814Z,0.60
2023-01-13T09:01:48.947Z,0.50
2023-01-13T09:02:48.763Z,0.60
2023-01-13T09:03:48.751Z,0.50
2023-01-13T09:04:48.833Z,0.50
2023-01-13T09:05:48.784Z,0.50
2023-01-13T09:06:48.754Z,0.60
2023-01-13T09:07:48.734Z,0.60
2023-01-13T09:08:48.701Z,0.50
2023-01-13T09:09:48.729Z,0.50
2023-01-13T09:10:48.680Z,0.60
2023-01-13T09:11:48.694Z,0.80
2023-01-13T09:12:48.658Z,0.80
2023-01-13T09:13:48.664Z,0.60
2023-01-13T09:14:48.640Z,0.80
2023-01-13T09:15:48.645Z,0.50
2023-01-13T09:16:48.614Z,0.50
2023-01-13T09:17:48.595Z,0.60
2023-01-13T09:18:48.639Z,0.70
2023-01-13T09:19:48.571Z,0.50
2023-01-13T09:20:48.585Z,0.60
2023-01-13T09:21:48.562Z,0.80
2023-01-13T09:22:48.562Z,0.90
2023-01-13T09:23:48.566Z,0.70
2023-01-13T09:24:48.529Z,0.80
2023-01-13T09:25:48.516Z,0.80
2023-01-13T09:26:48.524Z,0.50
2023-01-13T09:27:48.485Z,0.60
2023-01-13T09:28:48.470Z,0.60
2023-01-13T09:29:48.460Z,0.80
2023-01-13T09:30:48.508Z,0.80
2023-01-13T09:31:48.463Z,0.70
2023-01-13T09:32:48.638Z,0.60
2023-01-13T09:33:48.452Z,0.60
2023-01-13T09:34:48.403Z,0.70
2023-01-13T09:35:48.391Z,0.70
2023-01-13T09:36:48.382Z,0.80
2023-01-13T09:37:48.396Z,0.90
2023-01-13T09:38:48.380Z,1.00
2023-01-13T09:39:48.471Z,0.80
2023-01-13T09:40:48.337Z,0.70
2023-01-13T09:41:48.324Z,0.80
2023-01-13T09:42:48.387Z,0.60
2023-01-13T09:43:48.300Z,0.70
2023-01-13T09:44:48.311Z,0.60
2023-01-13T09:45:48.280Z,0.90
2023-01-13T09:46:48.273Z,0.60
2023-01-13T09:47:48.263Z,0.60
2023-01-13T09:48:48.295Z,0.70
2023-01-13T09:49:48.252Z,0.80
2023-01-13T09:50:48.260Z,0.80
2023-01-13T09:51:48.210Z,0.90
2023-01-13T09:52:48.236Z,0.60
2023-01-13T09:53:48.190Z,1.10
2023-01-13T09:54:48.196Z,0.90
2023-01-13T09:55:48.198Z,0.60
2023-01-13T09:56:48.190Z,0.80
2023-01-13T09:57:48.144Z,0.60
2023-01-13T09:58:48.194Z,0.70
2023-01-13T09:59:48.160Z,0.60
2023-01-13T10:00:48.118Z,0.50
2023-01-13T10:01:48.113Z,0.70
2023-01-13T10:02:48.120Z,0.70
2023-01-13T10:03:48.141Z,0.70
2023-01-13T10:04:48.132Z,0.70
2023-01-13T10:05:48.063Z,0.60
2023-01-13T10:06:48.047Z,0.40
2023-01-13T10:07:49.400Z,0.50
2023-01-13T10:08:48.055Z,0.50
2023-01-13T10:09:48.031Z,0.60
2023-01-13T10:10:48.001Z,0.80
2023-01-13T10:11:48.039Z,0.60
2023-01-13T10:12:48.008Z,0.50
2023-01-13T10:13:47.978Z,0.80
2023-01-13T10:14:47.964Z,0.70
2023-01-13T10:15:47.959Z,0.80
2023-01-13T10:16:47.938Z,0.80
2023-01-13T10:17:47.950Z,0.60
2023-01-13T10:18:47.924Z,0.60
2023-01-13T10:19:47.932Z,0.50
2023-01-13T10:20:47.907Z,0.60
2023-01-13T10:21:47.876Z,0.60
2023-01-13T10:22:47.873Z,0.60
2023-01-13T10:23:47.858Z,1.00
2023-01-13T10:24:47.861Z,0.60
2023-01-13T10:25:47.948Z,0.70
2023-01-13T10:26:47.838Z,1.00
2023-01-13T10:27:47.846Z,0.90
2023-01-13T10:28:47.832Z,0.90
2023-01-13T10:29:47.795Z,0.80
2023-01-13T10:30:47.826Z,0.60
2023-01-13T10:31:47.804Z,0.60
2023-01-13T10:32:47.823Z,0.80
2023-01-13T10:33:47.745Z,0.70
2023-01-13T10:34:47.761Z,0.70
2023-01-13T10:35:47.748Z,0.60
2023-01-13T10:36:47.727Z,0.70
2023-01-13T10:37:47.699Z,0.70
2023-01-13T10:38:47.710Z,0.90
2023-01-13T10:39:47.680Z,1.00
2023-01-13T10:40:47.704Z,0.70
2023-01-13T10:41:47.670Z,0.50
2023-01-13T10:42:47.677Z,0.50
2023-01-13T10:43:47.674Z,0.80
2023-01-13T10:44:47.630Z,2.00
2023-01-13T10:45:47.638Z,2.00
2023-01-13T10:46:47.666Z,0.80
2023-01-13T10:47:47.605Z,0.80
2023-01-13T10:48:47.576Z,0.60
2023-01-13T10:49:47.561Z,0.50
2023-01-13T10:50:47.561Z,0.60
2023-01-13T10:51:47.574Z,0.60
2023-01-13T10:52:47.540Z,0.50
2023-01-13T10:53:47.548Z,0.70
2023-01-13T10:54:47.505Z,0.70
2023-01-13T10:55:49.545Z,0.80
2023-01-13T10:56:47.522Z,0.80
2023-01-13T10:57:47.472Z,0.80
2023-01-13T10:58:47.468Z,0.70
2023-01-13T10:59:47.513Z,0.80
2023-01-13T11:00:47.434Z,0.80
2023-01-13T11:01:47.497Z,0.80
2023-01-13T11:02:47.492Z,0.90
2023-01-13T11:03:47.412Z,1.60
2023-01-13T11:04:47.425Z,1.40
2023-01-13T11:05:47.411Z,0.80
2023-01-13T11:06:47.368Z,1.10
2023-01-13T11:07:47.363Z,1.10
2023-01-13T11:08:47.359Z,1.10
2023-01-13T11:09:47.352Z,0.80
2023-01-13T11:10:47.328Z,0.80
2023-01-13T11:11:47.394Z,0.50
2023-01-13T11:12:47.323Z,0.60
2023-01-13T11:13:47.312Z,0.60
2023-01-13T11:14:47.298Z,0.50
2023-01-13T11:15:47.330Z,0.40
2023-01-13T11:16:52.920Z,0.50
2023-01-13T11:17:48.244Z,0.30
2023-01-13T11:18:47.231Z,0.40
2023-01-13T11:19:47.246Z,0.50
2023-01-13T11:20:47.228Z,0.40
2023-01-13T11:21:47.219Z,0.40
2023-01-13T11:22:47.250Z,0.50
2023-01-13T11:23:47.172Z,0.40
2023-01-13T11:24:50.768Z,0.40
2023-01-13T11:25:47.150Z,0.40
2023-01-13T11:26:47.170Z,0.40
2023-01-13T11:27:47.166Z,0.40
2023-01-13T11:28:47.134Z,0.30
2023-01-13T11:29:47.105Z,0.40
2023-01-13T11:30:48.511Z,0.40
2023-01-13T11:31:47.113Z,0.40
2023-01-13T11:32:47.101Z,0.50
2023-01-13T11:33:47.104Z,0.50
2023-01-13T11:34:47.051Z,0.50
2023-01-13T11:35:47.077Z,0.40
2023-01-13T11:36:47.030Z,0.50
2023-01-13T11:37:47.039Z,0.40
2023-01-13T11:38:47.035Z,0.50
2023-01-13T11:39:47.009Z,0.40
2023-01-13T11:40:47.001Z,0.40
2023-01-13T11:41:46.978Z,0.50
2023-01-13T11:42:46.963Z,0.50
2023-01-13T11:43:46.972Z,0.60
2023-01-13T11:44:46.935Z,0.40
2023-01-13T11:45:46.942Z,0.60
2023-01-13T11:46:46.945Z,0.50
2023-01-13T11:47:46.953Z,0.70
2023-01-13T11:48:46.897Z,0.40
2023-01-13T11:49:46.912Z,0.60
2023-01-13T11:50:46.866Z,0.70
2023-01-13T11:51:46.857Z,0.70
2023-01-13T11:52:46.892Z,0.50
2023-01-13T11:53:46.833Z,0.50
2023-01-13T11:54:46.837Z,0.60
2023-01-13T11:55:46.852Z,0.60
2023-01-13T11:56:46.843Z,0.60
2023-01-13T11:57:46.820Z,0.50
2023-01-13T11:58:51.102Z,0.50
2023-01-13T11:59:46.774Z,0.50
2023-01-13T12:00:46.779Z,0.40
2023-01-13T12:01:46.813Z,0.60
2023-01-13T12:02:46.822Z,0.60
2023-01-13T12:03:46.842Z,0.70
2023-01-13T12:04:46.726Z,0.60
2023-01-13T12:05:46.707Z,0.50
2023-01-13T12:06:46.705Z,0.50
2023-01-13T12:07:46.727Z,0.40
2023-01-13T12:08:46.691Z,0.50
2023-01-13T12:09:46.653Z,0.40
2023-01-13T12:10:46.647Z,0.50
2023-01-13T12:11:46.648Z,0.40
2023-01-13T12:12:46.649Z,0.50
2023-01-13T12:13:46.649Z,0.60
2023-01-13T12:14:46.631Z,0.50
2023-01-13T12:15:46.595Z,0.60
2023-01-13T12:16:46.671Z,0.50
2023-01-13T12:17:46.572Z,0.50
2023-01-13T12:18:46.627Z,0.60
2023-01-13T12:19:46.563Z,0.50
2023-01-13T12:20:46.566Z,0.60
2023-01-13T12:21:46.540Z,0.50
2023-01-13T12:22:46.519Z,0.50
2023-01-13T12:23:46.521Z,0.50
2023-01-13T12:24:46.493Z,0.40
2023-01-13T12:25:46.483Z,0.50
2023-01-13T12:26:46.473Z,0.50
2023-01-13T12:27:47.466Z,0.60
2023-01-13T12:28:46.535Z,0.60
2023-01-13T12:29:46.455Z,0.60
2023-01-13T12:30:46.418Z,0.60
2023-01-13T12:31:46.472Z,0.60
2023-01-13T12:32:46.432Z,0.80
2023-01-13T12:33:46.424Z,0.70
2023-01-13T12:34:46.384Z,0.60
2023-01-13T12:35:46.383Z,0.60
2023-01-13T12:36:46.370Z,0.50
2023-01-13T12:37:46.342Z,0.70
2023-01-13T12:38:46.365Z,0.70
2023-01-13T12:39:46.327Z,1.10
2023-01-13T12:40:46.332Z,1.00
2023-01-13T12:41:46.326Z,1.00
2023-01-13T12:42:46.305Z,1.20
2023-01-13T12:43:46.273Z,1.00
2023-01-13T12:44:46.304Z,0.90
2023-01-13T12:45:46.306Z,0.60
2023-01-13T12:46:46.270Z,0.70
2023-01-13T12:47:46.271Z,0.60
2023-01-13T12:48:46.241Z,0.70
2023-01-13T12:49:46.222Z,0.80
2023-01-13T12:50:46.224Z,0.70
2023-01-13T12:51:46.224Z,0.80
2023-01-13T12:52:46.212Z,0.90
2023-01-13T12:53:46.163Z,0.80
2023-01-13T12:54:46.151Z,0.70
2023-01-13T12:55:46.149Z,0.60
2023-01-13T12:56:46.134Z,0.70
2023-01-13T12:57:46.144Z,0.70
2023-01-13T12:58:46.134Z,0.60
2023-01-13T12:59:46.122Z,0.80
2023-01-13T13:00:46.138Z,0.60
2023-01-13T13:01:46.265Z,0.80
2023-01-13T13:02:46.205Z,0.60
2023-01-13T13:03:46.079Z,0.70
2023-01-13T13:04:46.662Z,0.60
2023-01-13T13:05:46.055Z,0.60
2023-01-13T13:06:46.051Z,0.70
2023-01-13T13:07:46.069Z,0.70
2023-01-13T13:08:46.019Z,0.60
2023-01-13T13:09:45.982Z,0.80
2023-01-13T13:10:45.972Z,1.20
2023-01-13T13:11:45.988Z,0.80
2023-01-13T13:12:45.964Z,0.70
2023-01-13T13:13:45.967Z,0.80
2023-01-13T13:14:45.971Z,0.70
2023-01-13T13:15:45.915Z,0.60
2023-01-13T13:16:45.972Z,1.40
2023-01-13T13:17:45.950Z,0.70
2023-01-13T13:18:45.897Z,0.70